Terminal Aerodrome Forecast
Issued by NWS

Home | Current Version | Previous Version | Text Only | Print | Product List | Glossary On
Versions: 1 2 3 4 5 6 7 8 9 10 11 12 13 14 15 16 17 18
029
FTUS46 KLOX 282338
TAFVNY
TAF
KVNY 282338Z 2900/2924 14008KT P6SM SCT150
     FM290300 VRB03KT P6SM SKC
     FM290900 VRB03KT 6SM BR OVC012
     FM291700 14010KT P6SM SKC=

USA.gov is the U.S. government's official web portal to all federal, state and local government web resources and services.